Rieti Airport LIQN

Flugplatz Daten

Name: Rieti Airport

Ident: LIQN

Lat: 42,42720032

Long: 12,85169983

Platzhöhe: 1278 ft

IataCode: QRT

City: Rieti

Metar

2021/08/05 11:50
LIQN 051150Z 19011KT 160V220 CAVOK 27/14 Q1011

Taf

Gewünschte Webcam nicht vorhanden? Dann fügen Sie eine hinzu. Sie wird dann so schnell wie möglich freigeschaltet
Url: Title: